This is the latest recevied weather packets stored in our database for station/object EA5CEE. If no packets are shown the sender has not sent any weather packets the latest 10 day(s).
| Time | Temp. | Humidity | Pressure | Rain* | Wind** | Luminosity | Snow |
|---|---|---|---|---|---|---|---|
| 1777123849 | 16.67° C | 88% | 1016.7 hPa | 0 mm | - | - | - |
| 1777122957 | 16.67° C | 87% | 1016.8 hPa | 0 mm | - | - | - |
| 1777122053 | 16.67° C | 87% | 1016.8 hPa | 0 mm | - | - | - |
| 1777121160 | 16.67° C | 85% | 1016.9 hPa | 0 mm | - | - | - |
| 1777120246 | 16.67° C | 81% | 1016.9 hPa | 0 mm | - | - | - |
| 1777119345 | 16.67° C | 78% | 1017 hPa | 0 mm | - | - | - |
| 1777118445 | 16.67° C | 77% | 1017.1 hPa | 0 mm | - | - | - |
| 1777117547 | 16.67° C | 75% | 1017.2 hPa | 0 mm | - | - | - |
| 1777116645 | 17.22° C | 74% | 1017.1 hPa | 0 mm | - | - | - |
| 1777115742 | 17.78° C | 73% | 1017.2 hPa | 0 mm | - | - | - |
| 1777114845 | 17.22° C | 74% | 1017.3 hPa | 0 mm | - | - | - |
| 1777113940 | 17.22° C | 75% | 1017.2 hPa | 0 mm | - | - | - |
| 1777113039 | 17.22° C | 74% | 1017.4 hPa | 0 mm | - | - | - |
| 1777112137 | 17.22° C | 73% | 1017.4 hPa | 0 mm | - | - | - |
| 1777111236 | 17.22° C | 72% | 1017.5 hPa | 0 mm | - | - | - |
| 1777110337 | 17.22° C | 70% | 1017.5 hPa | 0 mm | - | - | - |
| 1777109442 | 17.22° C | 69% | 1017.7 hPa | 0 mm | - | - | - |
| 1777108592 | 16.67° C | 70% | 1017.5 hPa | 0 mm | - | - | - |
| 1777107638 | 16.11° C | 73% | 1017.5 hPa | 0 mm | - | - | - |
| 1777106752 | 15.56° C | 72% | 1017.4 hPa | 0 mm | - | - | - |
| 1777105829 | 15.56° C | 71% | 1017.4 hPa | 0 mm | - | - | - |
| 1777104929 | 15.56° C | 72% | 1017.3 hPa | 0 mm | - | - | - |
| 1777104028 | 15.56° C | 73% | 1017.2 hPa | 0 mm | - | - | - |
| 1777103129 | 15° C | 78% | 1017.2 hPa | 0 mm | - | - | - |
| 1777102225 | 15° C | 76% | 1017.1 hPa | 0 mm | - | - | - |
* Rain latest hour (hover to see other rain measurements)
** Current wind speed in m/s (hover to see current wind gust speed)